Time;durP1;ratioP1;P1;durP2;ratioP2;P2;SDS_P1;SDS_P2;PMS_P1;PMS_P2;Temp;Humidity;BMP_temperature;BMP_pressure;BME280_temperature;BME280_humidity;BME280_pressure;Samples;Min_cycle;Max_cycle;Signal;HPM_P1;HPM_P2
2022/04/14 00:00:38;;;;;;;117.70;106.95;;;13.50;95.40;;;;;;4998854;28;20046;-83
2022/04/14 00:03:05;;;;;;;117.28;106.80;;;13.50;95.40;;;;;;4998784;28;20066;-83
2022/04/14 00:05:32;;;;;;;118.18;107.32;;;13.50;95.50;;;;;;4998380;28;20049;-83
2022/04/14 00:07:59;;;;;;;118.88;108.32;;;13.40;95.50;;;;;;5014982;28;20053;-83
2022/04/14 00:10:27;;;;;;;118.25;107.65;;;13.40;95.50;;;;;;5015374;28;20061;-83
2022/04/14 00:12:54;;;;;;;117.75;107.28;;;13.40;95.50;;;;;;4998700;28;20535;-83
2022/04/14 00:15:21;;;;;;;117.28;106.80;;;13.30;95.50;;;;;;4998485;28;20057;-83
2022/04/14 00:17:48;;;;;;;116.55;105.72;;;13.40;95.50;;;;;;5014718;28;20057;-82
2022/04/14 00:20:15;;;;;;;117.43;106.85;;;13.30;95.60;;;;;;5014768;28;20567;-83
2022/04/14 00:22:41;;;;;;;118.10;107.22;;;13.30;95.60;;;;;;5015308;28;20053;-83
2022/04/14 00:25:10;;;;;;;117.75;107.00;;;13.30;95.60;;;;;;4998848;28;20060;-83
2022/04/14 00:27:39;;;;;;;119.07;108.35;;;13.30;95.60;;;;;;5014868;28;20056;-82
2022/04/14 00:30:07;;;;;;;117.50;107.07;;;13.30;95.80;;;;;;5015060;28;20152;-82
2022/04/14 00:32:34;;;;;;;118.63;107.90;;;13.30;95.70;;;;;;5014552;28;20050;-83
2022/04/14 00:35:01;;;;;;;119.88;109.10;;;13.20;95.70;;;;;;5014864;28;20052;-82
2022/04/14 00:37:29;;;;;;;116.93;106.57;;;13.20;95.70;;;;;;4998166;28;20454;-82
2022/04/14 00:39:56;;;;;;;117.80;107.30;;;13.20;95.70;;;;;;5014909;28;20536;-82
2022/04/14 00:42:23;;;;;;;118.15;107.72;;;13.20;95.70;;;;;;4998337;28;20058;-83
2022/04/14 00:44:51;;;;;;;118.75;108.25;;;13.10;95.70;;;;;;5014812;28;20046;-82
2022/04/14 00:47:19;;;;;;;120.05;109.45;;;13.10;95.70;;;;;;4998027;28;20568;-83
2022/04/14 00:49:46;;;;;;;118.88;108.18;;;13.10;95.70;;;;;;5014376;28;20050;-83
2022/04/14 00:52:16;;;;;;;120.63;109.82;;;13.10;95.80;;;;;;5015333;28;20521;-82
2022/04/14 00:54:43;;;;;;;120.53;109.68;;;13.10;95.80;;;;;;5018056;28;20497;-83
2022/04/14 00:57:10;;;;;;;121.90;111.00;;;13.10;95.80;;;;;;5017896;28;20140;-83
2022/04/14 00:59:37;;;;;;;119.82;108.90;;;13.00;95.80;;;;;;5001293;28;20052;-82
2022/04/14 01:02:06;;;;;;;120.03;109.15;;;13.00;95.80;;;;;;5001256;28;20050;-82
2022/04/14 01:04:33;;;;;;;120.90;109.75;;;13.00;95.90;;;;;;5018162;28;20050;-83
2022/04/14 01:07:00;;;;;;;121.60;110.72;;;12.90;95.80;;;;;;5001244;28;20060;-83
2022/04/14 01:09:28;;;;;;;120.05;109.35;;;12.90;95.90;;;;;;5001376;28;20038;-82
2022/04/14 01:11:57;;;;;;;122.10;110.97;;;12.90;95.90;;;;;;5001500;28;20519;-83
2022/04/14 01:14:26;;;;;;;121.65;110.78;;;12.90;95.90;;;;;;5018171;28;20058;-83
2022/04/14 01:16:54;;;;;;;121.85;110.75;;;12.80;95.90;;;;;;5017882;28;20080;-82
2022/04/14 01:19:22;;;;;;;121.47;110.78;;;12.80;95.90;;;;;;5001091;28;20153;-83
2022/04/14 01:21:57;;;;;;;121.10;110.40;;;12.80;96.00;;;;;;5017451;28;20054;-83
2022/04/14 01:24:26;;;;;;;122.32;111.20;;;12.80;96.00;;;;;;5017476;28;20057;-83
2022/04/14 01:26:54;;;;;;;122.45;111.78;;;12.80;96.00;;;;;;5017265;28;20085;-84
2022/04/14 01:29:23;;;;;;;120.40;109.47;;;12.80;96.00;;;;;;5001115;28;20046;-83
2022/04/14 01:31:51;;;;;;;122.22;111.35;;;12.80;96.00;;;;;;5017559;28;20053;-83
2022/04/14 01:34:18;;;;;;;121.90;110.90;;;12.70;96.10;;;;;;5017163;28;20054;-82
2022/04/14 01:36:45;;;;;;;120.78;109.88;;;12.70;96.00;;;;;;5001012;28;20054;-82
2022/04/14 01:39:13;;;;;;;123.20;112.30;;;12.70;96.00;;;;;;5000748;28;20137;-83
2022/04/14 01:41:43;;;;;;;123.00;111.88;;;12.70;96.00;;;;;;5000765;28;20053;-83
2022/04/14 01:44:10;;;;;;;119.93;109.32;;;12.60;96.00;;;;;;5017421;28;20552;-84
2022/04/14 01:46:39;;;;;;;123.45;112.07;;;12.60;96.10;;;;;;5001078;28;20579;-82
2022/04/14 01:49:06;;;;;;;122.68;111.72;;;12.60;96.10;;;;;;5000379;28;20124;-82
2022/04/14 01:51:33;;;;;;;125.40;113.97;;;12.60;96.10;;;;;;5017178;28;20508;-83
2022/04/14 01:54:00;;;;;;;126.30;114.75;;;12.60;96.10;;;;;;5000879;28;20476;-83
2022/04/14 01:56:27;;;;;;;125.05;113.60;;;12.60;96.10;;;;;;5000754;28;20060;-83
2022/04/14 01:58:55;;;;;;;123.68;112.65;;;12.60;96.20;;;;;;5001034;28;20056;-83
2022/04/14 02:01:22;;;;;;;128.15;116.60;;;12.60;96.20;;;;;;5000496;28;20054;-83
2022/04/14 02:03:50;;;;;;;127.35;115.90;;;12.60;96.30;;;;;;5017451;28;20157;-83
2022/04/14 02:06:17;;;;;;;126.70;115.35;;;12.60;96.40;;;;;;5016915;28;20552;-82
2022/04/14 02:08:44;;;;;;;128.98;117.25;;;12.60;96.40;;;;;;5000359;28;20616;-82
2022/04/14 02:11:11;;;;;;;129.20;117.40;;;12.50;96.50;;;;;;5000311;28;20049;-83
2022/04/14 02:13:39;;;;;;;134.35;122.28;;;12.60;96.50;;;;;;5016835;28;20054;-82
2022/04/14 02:16:07;;;;;;;129.65;117.65;;;12.50;96.50;;;;;;5016818;28;20045;-82
2022/04/14 02:18:34;;;;;;;130.75;118.70;;;12.50;96.60;;;;;;5016742;28;20128;-82
2022/04/14 02:21:01;;;;;;;130.32;118.30;;;12.50;96.60;;;;;;5000097;28;20057;-82
2022/04/14 02:23:28;;;;;;;130.45;118.45;;;12.50;96.60;;;;;;5000136;28;20145;-82
2022/04/14 02:25:55;;;;;;;129.90;117.65;;;12.50;96.60;;;;;;5016336;28;20061;-83
2022/04/14 02:28:22;;;;;;;128.18;116.18;;;12.50;96.70;;;;;;5016574;28;20605;-82
2022/04/14 02:30:49;;;;;;;127.85;116.05;;;12.50;96.70;;;;;;5000021;28;20088;-83
2022/04/14 02:33:18;;;;;;;126.72;115.15;;;12.50;96.80;;;;;;5000245;28;20054;-83
2022/04/14 02:35:45;;;;;;;126.28;114.97;;;12.50;96.70;;;;;;5000138;28;20061;-82
2022/04/14 02:38:12;;;;;;;126.72;115.03;;;12.40;96.70;;;;;;5000121;28;20060;-82
2022/04/14 02:40:39;;;;;;;127.50;115.63;;;12.40;96.70;;;;;;5000239;28;20050;-82
2022/04/14 02:43:07;;;;;;;126.15;114.70;;;12.40;96.70;;;;;;5016461;28;20054;-83
2022/04/14 02:45:34;;;;;;;128.80;116.88;;;12.40;96.70;;;;;;5016901;28;20140;-82
2022/04/14 02:48:01;;;;;;;126.40;115.18;;;12.30;96.70;;;;;;4999795;28;20526;-82
2022/04/14 02:50:29;;;;;;;129.57;117.60;;;12.30;96.70;;;;;;4999638;28;20046;-83
2022/04/14 02:52:56;;;;;;;129.63;117.70;;;12.30;96.80;;;;;;4999886;28;20504;-82
2022/04/14 02:55:23;;;;;;;130.45;118.22;;;12.30;96.90;;;;;;5016120;28;20060;-82
2022/04/14 02:57:51;;;;;;;130.30;118.03;;;12.30;96.90;;;;;;5015969;28;20049;-83
2022/04/14 03:00:18;;;;;;;129.68;117.57;;;12.30;97.00;;;;;;4999771;28;20049;-83
2022/04/14 03:02:45;;;;;;;129.40;117.15;;;12.30;97.00;;;;;;4999347;28;20612;-82
2022/04/14 03:05:13;;;;;;;128.13;116.32;;;12.30;96.90;;;;;;4999758;28;20084;-82
2022/04/14 03:07:41;;;;;;;129.75;118.07;;;12.30;96.90;;;;;;5015701;28;20137;-82
2022/04/14 03:10:08;;;;;;;128.80;117.10;;;12.30;96.90;;;;;;5015887;28;20488;-83
2022/04/14 03:12:43;;;;;;;129.35;117.28;;;12.30;96.90;;;;;;4999681;28;20140;-82
2022/04/14 03:15:10;;;;;;;131.40;119.50;;;12.20;97.00;;;;;;5015412;28;20104;-82
2022/04/14 03:17:38;;;;;;;132.30;120.03;;;12.20;97.00;;;;;;4999636;28;20136;-82
2022/04/14 03:20:06;;;;;;;130.00;117.90;;;12.20;97.00;;;;;;5016012;28;20058;-83
2022/04/14 03:22:34;;;;;;;132.55;120.03;;;12.20;97.00;;;;;;5015683;28;20100;-83
2022/04/14 03:25:04;;;;;;;132.63;120.38;;;12.20;97.00;;;;;;4999678;28;20057;-82
2022/04/14 03:27:31;;;;;;;131.93;119.78;;;12.20;97.00;;;;;;5015712;28;20054;-83
2022/04/14 03:29:57;;;;;;;133.07;120.95;;;12.20;97.00;;;;;;4999539;28;20049;-83
2022/04/14 03:32:25;;;;;;;130.05;117.65;;;12.20;97.00;;;;;;4999112;28;20054;-82
2022/04/14 03:34:52;;;;;;;131.13;118.97;;;12.10;97.00;;;;;;5015651;28;20053;-82
2022/04/14 03:37:19;;;;;;;134.02;121.50;;;12.10;97.00;;;;;;4999006;28;20045;-82
2022/04/14 03:39:46;;;;;;;133.73;121.25;;;12.10;97.00;;;;;;4999183;28;20057;-82
2022/04/14 03:42:15;;;;;;;133.90;121.60;;;12.00;97.00;;;;;;4998801;28;20050;-83
2022/04/14 03:44:41;;;;;;;132.23;120.10;;;12.00;97.00;;;;;;5015602;28;20050;-83
2022/04/14 03:47:09;;;;;;;132.32;120.15;;;12.00;97.00;;;;;;4998741;28;20054;-82
2022/04/14 03:49:36;;;;;;;134.18;121.82;;;12.00;97.00;;;;;;4999046;28;20469;-83
2022/04/14 03:52:03;;;;;;;132.15;119.78;;;12.00;97.00;;;;;;5015247;28;20061;-82
2022/04/14 03:54:30;;;;;;;134.38;122.03;;;11.90;97.00;;;;;;5015385;28;20497;-82
2022/04/14 03:56:57;;;;;;;131.38;119.45;;;11.90;97.00;;;;;;4998930;28;20133;-83
2022/04/14 03:59:25;;;;;;;132.57;120.43;;;11.80;96.90;;;;;;5015482;28;20058;-82
2022/04/14 04:01:52;;;;;;;134.15;121.85;;;11.80;96.90;;;;;;5015277;28;20053;-83
2022/04/14 04:04:19;;;;;;;132.98;120.63;;;11.80;97.00;;;;;;5015420;28;20394;-82
2022/04/14 04:06:46;;;;;;;133.45;121.05;;;11.80;97.00;;;;;;4999280;28;20050;-82
2022/04/14 04:09:14;;;;;;;133.32;121.22;;;11.80;97.00;;;;;;5014692;28;20054;-82
2022/04/14 04:11:41;;;;;;;134.68;122.28;;;11.80;97.00;;;;;;4998808;28;20108;-82
2022/04/14 04:14:08;;;;;;;131.82;119.68;;;11.80;97.00;;;;;;4998830;28;20054;-83
2022/04/14 04:16:36;;;;;;;133.95;121.70;;;11.80;97.00;;;;;;5015044;28;20141;-82
2022/04/14 04:19:03;;;;;;;131.90;119.50;;;11.70;97.00;;;;;;4998637;28;20058;-82
2022/04/14 04:21:31;;;;;;;131.15;118.85;;;11.70;97.00;;;;;;5015031;28;20050;-82
2022/04/14 04:23:58;;;;;;;134.82;122.38;;;11.70;97.00;;;;;;5014683;28;20070;-82
2022/04/14 04:26:25;;;;;;;132.95;120.70;;;11.70;97.00;;;;;;4998681;28;20133;-82
2022/04/14 04:28:52;;;;;;;129.10;117.18;;;11.70;97.00;;;;;;5000945;28;20146;-83
2022/04/14 04:31:19;;;;;;;128.30;116.78;;;11.60;96.90;;;;;;5001717;28;20054;-82
2022/04/14 04:33:51;;;;;;;130.02;118.10;;;11.60;96.90;;;;;;5017944;28;20046;-83
2022/04/14 04:36:18;;;;;;;129.27;117.78;;;11.60;96.80;;;;;;5018249;28;20052;-82
2022/04/14 04:38:45;;;;;;;131.82;119.82;;;11.60;96.70;;;;;;5001568;28;20054;-82
2022/04/14 04:41:12;;;;;;;128.27;116.97;;;11.60;96.70;;;;;;5001566;28;20213;-82
2022/04/14 04:43:39;;;;;;;126.97;115.60;;;11.50;96.70;;;;;;5001354;28;20640;-82
2022/04/14 04:46:08;;;;;;;125.28;113.95;;;11.50;96.60;;;;;;5001836;28;20080;-82
2022/04/14 04:48:35;;;;;;;124.75;113.55;;;11.50;96.60;;;;;;5017752;28;20453;-83
2022/04/14 04:51:03;;;;;;;125.35;114.15;;;11.50;96.60;;;;;;5017736;28;20053;-82
2022/04/14 04:53:30;;;;;;;127.38;115.88;;;11.50;96.50;;;;;;5001470;28;20516;-83
2022/04/14 04:55:57;;;;;;;130.02;117.97;;;11.50;96.40;;;;;;5001342;28;20049;-83
2022/04/14 04:58:24;;;;;;;131.20;119.10;;;11.40;96.40;;;;;;5001139;28;20054;-82
2022/04/14 05:00:53;;;;;;;131.57;119.63;;;11.40;96.50;;;;;;5017661;28;20548;-83
2022/04/14 05:03:21;;;;;;;133.90;122.00;;;11.40;96.50;;;;;;5017968;28;20058;-83
2022/04/14 05:05:48;;;;;;;134.73;122.63;;;11.40;96.50;;;;;;5000960;28;20488;-83
2022/04/14 05:08:16;;;;;;;132.25;120.13;;;11.30;96.60;;;;;;5001313;28;20050;-82
2022/04/14 05:10:43;;;;;;;132.50;119.93;;;11.30;96.70;;;;;;5001414;28;20120;-82
2022/04/14 05:13:10;;;;;;;128.68;116.93;;;11.30;96.70;;;;;;5001461;28;20050;-82
2022/04/14 05:15:37;;;;;;;124.10;112.85;;;11.20;96.70;;;;;;5001180;28;20108;-83
2022/04/14 05:18:04;;;;;;;124.82;113.72;;;11.20;96.60;;;;;;5000393;28;20145;-82
2022/04/14 05:20:31;;;;;;;122.25;111.18;;;11.20;96.50;;;;;;5000989;28;20057;-82
2022/04/14 05:22:58;;;;;;;123.38;112.10;;;11.20;96.40;;;;;;5001045;28;20089;-82
2022/04/14 05:25:27;;;;;;;124.65;113.45;;;11.10;96.40;;;;;;5000970;28;20080;-87
2022/04/14 05:27:54;;;;;;;127.57;115.97;;;11.20;96.40;;;;;;5015056;28;20058;-84
2022/04/14 05:30:21;;;;;;;143.98;131.70;;;11.10;96.40;;;;;;5000421;28;20157;-83
2022/04/14 05:32:47;;;;;;;128.80;117.47;;;11.10;96.40;;;;;;4998472;28;20765;-83
2022/04/14 05:35:14;;;;;;;131.35;119.57;;;11.10;96.50;;;;;;5014886;28;20416;-83
2022/04/14 05:37:41;;;;;;;135.25;122.30;;;11.10;96.50;;;;;;4999461;28;20530;-83
2022/04/14 05:40:09;;;;;;;130.63;118.53;;;11.10;96.40;;;;;;5016332;28;20094;-83
2022/04/14 05:42:38;;;;;;;133.68;120.97;;;11.10;96.60;;;;;;5000131;28;20056;-83
2022/04/14 05:45:05;;;;;;;136.65;124.10;;;11.10;96.90;;;;;;5032983;28;20580;-83
2022/04/14 05:47:32;;;;;;;137.40;124.43;;;11.10;96.80;;;;;;5016366;28;20588;-82
2022/04/14 05:49:59;;;;;;;139.45;126.30;;;11.10;97.20;;;;;;4999747;28;20076;-82
2022/04/14 05:52:26;;;;;;;138.07;125.30;;;11.10;97.30;;;;;;5016447;28;20473;-82
2022/04/14 05:54:53;;;;;;;144.90;130.73;;;11.10;97.40;;;;;;4991972;28;20105;-82
2022/04/14 05:57:22;;;;;;;143.30;129.63;;;11.10;97.60;;;;;;4999197;28;20464;-83
2022/04/14 05:59:50;;;;;;;141.65;128.27;;;11.00;97.70;;;;;;4999438;28;20420;-82
2022/04/14 06:02:17;;;;;;;143.48;130.07;;;11.00;97.70;;;;;;5016612;28;20058;-83
2022/04/14 06:04:44;;;;;;;143.90;129.95;;;11.00;97.80;;;;;;5013724;28;20046;-85
2022/04/14 06:07:11;;;;;;;146.70;132.43;;;11.10;98.20;;;;;;4997519;28;20046;-84
2022/04/14 06:09:38;;;;;;;144.90;131.13;;;11.10;98.10;;;;;;5016163;28;20504;-84
2022/04/14 06:12:06;;;;;;;146.07;132.00;;;11.10;98.10;;;;;;5013162;28;20088;-84
2022/04/14 06:14:33;;;;;;;144.43;130.23;;;11.10;98.30;;;;;;5016117;28;20057;-85
2022/04/14 06:17:02;;;;;;;148.07;134.13;;;11.10;98.40;;;;;;4999052;28;20054;-89
2022/04/14 06:19:29;;;;;;;143.20;129.27;;;11.10;98.40;;;;;;4999660;28;20471;-85
2022/04/14 06:21:56;;;;;;;144.30;130.50;;;11.10;98.40;;;;;;5016128;28;20065;-85
2022/04/14 06:24:23;;;;;;;141.93;128.25;;;11.10;98.30;;;;;;4999122;28;20054;-81
2022/04/14 06:26:50;;;;;;;145.07;131.20;;;11.10;98.40;;;;;;5016374;28;20108;-83
2022/04/14 06:29:17;;;;;;;145.27;131.00;;;11.10;98.50;;;;;;4999275;28;20583;-83
2022/04/14 06:31:44;;;;;;;142.50;129.00;;;11.20;98.50;;;;;;4998856;28;20149;-83
2022/04/14 06:34:12;;;;;;;145.70;131.57;;;11.20;98.40;;;;;;5016046;28;20076;-86
2022/04/14 06:36:39;;;;;;;142.13;128.23;;;11.20;98.30;;;;;;4999415;28;20054;-86
2022/04/14 06:39:12;;;;;;;141.38;127.78;;;11.20;98.30;;;;;;5010559;28;20058;-84
2022/04/14 06:41:39;;;;;;;141.63;127.57;;;11.20;98.20;;;;;;5015647;28;20419;-83
2022/04/14 06:44:06;;;;;;;140.70;127.00;;;11.30;98.40;;;;;;4998315;28;20109;-83
2022/04/14 06:46:33;;;;;;;142.90;129.00;;;11.30;98.40;;;;;;4998653;28;20168;-84
2022/04/14 06:49:00;;;;;;;142.77;128.75;;;11.40;98.50;;;;;;4998899;28;20054;-82
2022/04/14 06:51:28;;;;;;;141.60;128.07;;;11.40;98.60;;;;;;5014412;28;20422;-83
2022/04/14 06:53:55;;;;;;;145.77;131.65;;;11.50;98.70;;;;;;4998070;28;20551;-83
2022/04/14 06:56:22;;;;;;;140.45;126.60;;;11.50;98.60;;;;;;5015537;28;20547;-83
2022/04/14 06:58:49;;;;;;;142.05;128.18;;;11.50;98.60;;;;;;5006582;28;20053;-83
2022/04/14 07:01:16;;;;;;;142.13;128.43;;;11.60;98.60;;;;;;4998900;28;20136;-83
2022/04/14 07:03:43;;;;;;;141.50;127.82;;;11.60;98.70;;;;;;5015149;28;20050;-83
2022/04/14 07:06:10;;;;;;;141.75;128.02;;;11.70;98.80;;;;;;5012869;28;20133;-83
2022/04/14 07:08:38;;;;;;;141.85;128.45;;;11.70;98.90;;;;;;5014760;28;20061;-83
2022/04/14 07:11:05;;;;;;;143.05;129.32;;;11.80;98.90;;;;;;4999870;28;20128;-83
2022/04/14 07:13:32;;;;;;;144.65;130.85;;;11.80;98.80;;;;;;4999107;28;20133;-83
2022/04/14 07:16:00;;;;;;;140.90;127.10;;;11.80;98.80;;;;;;5015435;28;20056;-83
2022/04/14 07:18:27;;;;;;;141.77;128.35;;;11.90;98.90;;;;;;4999568;28;20572;-83
2022/04/14 07:20:54;;;;;;;143.48;129.85;;;11.90;98.90;;;;;;4999383;28;20081;-83
2022/04/14 07:23:21;;;;;;;142.25;128.30;;;12.00;98.90;;;;;;4998767;28;20081;-83
2022/04/14 07:25:49;;;;;;;143.43;129.30;;;12.00;99.00;;;;;;5011739;28;20057;-83
2022/04/14 07:28:16;;;;;;;142.18;127.97;;;12.10;99.20;;;;;;5013178;28;20053;-83
2022/04/14 07:30:43;;;;;;;142.43;128.80;;;12.20;99.10;;;;;;4996068;28;20507;-84
2022/04/14 07:33:10;;;;;;;142.02;128.40;;;12.20;99.10;;;;;;4995123;28;20057;-82
2022/04/14 07:35:37;;;;;;;140.35;126.85;;;12.30;99.20;;;;;;4995596;28;20057;-83
2022/04/14 07:38:05;;;;;;;139.52;126.30;;;12.30;99.10;;;;;;5012362;28;20100;-83
2022/04/14 07:40:32;;;;;;;139.00;125.68;;;12.30;99.10;;;;;;5011676;28;20054;-83
2022/04/14 07:43:01;;;;;;;136.68;123.65;;;12.40;99.10;;;;;;4995595;28;20129;-83
2022/04/14 07:45:28;;;;;;;136.05;122.82;;;12.40;99.10;;;;;;4994448;28;20420;-83
2022/04/14 07:47:55;;;;;;;133.88;121.07;;;12.50;99.10;;;;;;5012263;28;20050;-83
2022/04/14 07:50:22;;;;;;;133.15;120.57;;;12.60;99.00;;;;;;4995661;28;20078;-83
2022/04/14 07:52:52;;;;;;;131.05;118.88;;;12.70;99.00;;;;;;4995844;28;20140;-83
2022/04/14 07:55:24;;;;;;;133.27;120.97;;;12.70;99.10;;;;;;5012129;28;20053;-83
2022/04/14 07:57:53;;;;;;;132.63;120.07;;;12.80;98.90;;;;;;5012105;28;20137;-83
2022/04/14 08:00:22;;;;;;;133.20;120.68;;;12.80;98.80;;;;;;4995663;28;20632;-83
2022/04/14 08:02:53;;;;;;;131.15;119.07;;;12.90;98.80;;;;;;4995514;28;20054;-84
2022/04/14 08:05:20;;;;;;;130.10;117.97;;;13.00;98.80;;;;;;5013412;28;20487;-83
2022/04/14 08:07:47;;;;;;;127.32;115.55;;;13.00;98.70;;;;;;4995125;28;20058;-83
2022/04/14 08:10:14;;;;;;;126.93;115.18;;;13.10;98.60;;;;;;4995323;28;20057;-83
2022/04/14 08:12:41;;;;;;;125.95;114.40;;;13.20;98.40;;;;;;4995386;28;20134;-83
2022/04/14 08:15:10;;;;;;;126.18;114.63;;;13.20;98.20;;;;;;5011860;28;20178;-83
2022/04/14 08:17:40;;;;;;;123.15;112.03;;;13.30;98.20;;;;;;5011540;28;20054;-83
2022/04/14 08:20:08;;;;;;;125.53;114.25;;;13.40;98.20;;;;;;4995444;28;20089;-83
2022/04/14 08:22:46;;;;;;;121.45;110.80;;;13.40;98.00;;;;;;5011693;28;20061;-83
2022/04/14 08:25:14;;;;;;;124.05;112.85;;;13.50;97.60;;;;;;4995239;28;20054;-83
2022/04/14 08:27:41;;;;;;;130.15;118.63;;;13.60;97.10;;;;;;4994633;28;20137;-83
2022/04/14 08:30:09;;;;;;;125.18;114.35;;;13.70;97.10;;;;;;5014212;28;20407;-82
2022/04/14 08:32:37;;;;;;;124.78;113.70;;;13.70;97.30;;;;;;5013792;28;20056;-82
2022/04/14 08:35:06;;;;;;;126.57;115.28;;;13.80;97.00;;;;;;4998311;28;20144;-83
2022/04/14 08:37:36;;;;;;;126.47;114.97;;;13.80;97.00;;;;;;5013841;28;20050;-82
2022/04/14 08:40:06;;;;;;;127.75;116.30;;;13.90;96.90;;;;;;5011720;28;20140;-84
2022/04/14 08:42:37;;;;;;;127.65;116.15;;;14.00;96.80;;;;;;4996893;28;20046;-83
2022/04/14 08:45:07;;;;;;;129.13;117.47;;;14.10;96.70;;;;;;5008544;28;20050;-82
2022/04/14 08:47:36;;;;;;;126.22;114.97;;;14.10;96.80;;;;;;5012464;28;20054;-82
2022/04/14 08:50:06;;;;;;;129.25;117.50;;;14.20;96.70;;;;;;5011008;28;20497;-82
2022/04/14 08:52:34;;;;;;;129.73;118.35;;;14.20;96.40;;;;;;5012757;28;20054;-82
2022/04/14 08:55:04;;;;;;;128.73;117.15;;;14.30;96.50;;;;;;5013141;28;20152;-82
2022/04/14 08:57:32;;;;;;;130.50;119.00;;;14.30;96.40;;;;;;4996254;28;20145;-81
2022/04/14 09:00:00;;;;;;;131.10;119.38;;;14.40;96.30;;;;;;5013621;28;20065;-81
2022/04/14 09:02:28;;;;;;;130.77;119.28;;;14.50;96.10;;;;;;5012190;28;20052;-83
2022/04/14 09:04:56;;;;;;;133.73;121.82;;;14.50;96.00;;;;;;5013883;28;20054;-84
2022/04/14 09:07:25;;;;;;;132.07;120.30;;;14.60;96.00;;;;;;4996803;28;20046;-82
2022/04/14 09:09:52;;;;;;;131.18;119.57;;;14.60;96.10;;;;;;5013981;28;20089;-83
2022/04/14 09:12:20;;;;;;;131.10;119.60;;;14.70;96.20;;;;;;5030263;28;20042;-83
2022/04/14 09:14:47;;;;;;;129.95;118.65;;;14.70;95.70;;;;;;5016226;28;20148;-83
2022/04/14 09:17:14;;;;;;;134.25;122.65;;;14.80;95.50;;;;;;4990386;28;20534;-83
2022/04/14 09:19:42;;;;;;;133.48;121.80;;;14.90;95.50;;;;;;5012854;28;20057;-83
2022/04/14 09:22:11;;;;;;;131.50;120.10;;;14.90;95.80;;;;;;5020584;28;20062;-82
2022/04/14 09:24:44;;;;;;;130.80;119.60;;;14.90;95.80;;;;;;5016147;28;20413;-81
2022/04/14 09:27:24;;;;;;;131.85;120.35;;;15.00;95.80;;;;;;5000109;28;20050;-83
2022/04/14 09:29:52;;;;;;;132.05;120.15;;;15.10;95.80;;;;;;5016123;28;20571;-80
2022/04/14 09:32:33;;;;;;;135.00;123.35;;;15.10;95.40;;;;;;5000713;28;20065;-82
2022/04/14 09:35:02;;;;;;;132.07;120.68;;;15.20;95.50;;;;;;5000817;28;20137;-82
2022/04/14 09:37:29;;;;;;;131.00;119.60;;;15.30;95.20;;;;;;5016597;28;20058;-84
2022/04/14 09:40:00;;;;;;;131.38;120.13;;;15.40;94.50;;;;;;4995974;28;20082;-83
2022/04/14 09:42:29;;;;;;;131.80;120.53;;;15.40;94.50;;;;;;5015906;28;20054;-86
2022/04/14 09:44:56;;;;;;;132.30;120.97;;;15.50;94.60;;;;;;4994618;28;20144;-83
2022/04/14 09:47:25;;;;;;;132.60;121.38;;;15.50;94.70;;;;;;4999682;28;20472;-84
2022/04/14 09:49:51;;;;;;;135.27;123.78;;;15.50;94.60;;;;;;5011101;28;20054;-80
2022/04/14 09:52:19;;;;;;;132.45;120.75;;;15.60;94.70;;;;;;5032818;28;20046;-82
2022/04/14 09:54:48;;;;;;;134.18;122.60;;;15.70;93.60;;;;;;5017175;28;20085;-83
2022/04/14 09:57:18;;;;;;;134.73;122.75;;;15.70;93.70;;;;;;4999900;28;20046;-81
2022/04/14 09:59:45;;;;;;;131.77;120.53;;;15.70;94.20;;;;;;5000494;28;20050;-82
2022/04/14 10:02:14;;;;;;;135.68;124.13;;;15.70;93.60;;;;;;5016722;28;20061;-82
2022/04/14 10:04:42;;;;;;;134.27;122.78;;;15.80;93.80;;;;;;5016758;28;20575;-83
2022/04/14 10:07:12;;;;;;;134.70;123.60;;;15.80;93.30;;;;;;5016060;28;20054;-83
2022/04/14 10:09:40;;;;;;;133.35;122.05;;;15.90;93.30;;;;;;5000217;28;20512;-81
2022/04/14 10:12:35;;;;;;;128.27;117.18;;;15.90;92.90;;;;;;5016922;28;20064;-82
2022/04/14 10:15:07;;;;;;;132.43;121.22;;;16.00;93.00;;;;;;4992674;28;20084;-82
2022/04/14 10:17:37;;;;;;;130.27;119.03;;;16.10;91.90;;;;;;4999546;28;20054;-83
2022/04/14 10:20:06;;;;;;;131.75;120.65;;;16.10;91.60;;;;;;5016249;28;20058;-81
2022/04/14 10:22:35;;;;;;;130.07;118.85;;;16.20;91.70;;;;;;5016116;28;20046;-84
2022/04/14 10:25:02;;;;;;;129.45;118.55;;;16.30;91.40;;;;;;4998701;28;20057;-84
2022/04/14 10:27:31;;;;;;;128.73;118.03;;;16.30;91.30;;;;;;5016570;28;20504;-84
2022/04/14 10:29:59;;;;;;;124.20;113.70;;;16.30;91.30;;;;;;5000043;28;20511;-81
2022/04/14 10:32:26;;;;;;;123.80;113.43;;;16.40;90.90;;;;;;5015570;28;20054;-80
2022/04/14 10:34:55;;;;;;;123.85;113.40;;;16.40;91.20;;;;;;5033335;28;20066;-81
2022/04/14 10:37:28;;;;;;;122.35;112.10;;;16.40;91.70;;;;;;4993221;28;20505;-81
2022/04/14 10:39:56;;;;;;;124.68;114.43;;;16.50;90.50;;;;;;5014243;28;20064;-82
2022/04/14 10:42:26;;;;;;;122.15;111.78;;;16.40;90.50;;;;;;5010748;28;20058;-81
2022/04/14 10:44:54;;;;;;;120.00;109.82;;;16.50;90.00;;;;;;4999682;28;20049;-86
2022/04/14 10:47:54;;;;;;;121.47;111.18;;;16.50;89.40;;;;;;5015773;28;20424;-82
2022/04/14 10:50:23;;;;;;;124.35;113.45;;;16.50;88.60;;;;;;5016381;28;20064;-81
2022/04/14 10:53:06;;;;;;;119.93;109.65;;;16.50;88.30;;;;;;5016434;28;20058;-86
2022/04/14 10:55:38;;;;;;;127.43;116.85;;;16.60;88.60;;;;;;4999525;28;20431;-81
2022/04/14 10:58:05;;;;;;;128.95;118.53;;;16.60;90.30;;;;;;5014333;28;20544;-83
2022/04/14 11:00:37;;;;;;;123.70;113.32;;;16.60;90.80;;;;;;5015144;28;20062;-81
2022/04/14 11:03:07;;;;;;;123.65;113.05;;;16.60;90.20;;;;;;5014000;28;20050;-81
2022/04/14 11:05:45;;;;;;;124.60;113.93;;;16.70;90.40;;;;;;5013206;28;20141;-81
2022/04/14 11:08:23;;;;;;;124.60;114.13;;;16.80;90.60;;;;;;5015976;28;20061;-83
2022/04/14 11:10:54;;;;;;;127.20;116.72;;;16.90;89.40;;;;;;5015989;28;20479;-82
2022/04/14 11:13:21;;;;;;;124.82;114.22;;;16.90;89.20;;;;;;5032291;28;20056;-82
2022/04/14 11:15:48;;;;;;;123.40;113.05;;;16.90;90.10;;;;;;5015859;28;20129;-81
2022/04/14 11:18:16;;;;;;;124.07;113.68;;;16.90;89.30;;;;;;5015740;28;20059;-82
2022/04/14 11:20:57;;;;;;;122.50;112.10;;;17.00;88.60;;;;;;4998967;28;20142;-81
2022/04/14 11:23:28;;;;;;;129.02;118.32;;;17.00;89.60;;;;;;5005035;28;20551;-84
2022/04/14 11:26:09;;;;;;;120.55;110.50;;;17.10;89.70;;;;;;4985500;28;20054;-81
2022/04/14 11:28:39;;;;;;;117.68;107.93;;;17.10;87.50;;;;;;4995712;28;20055;-83
2022/04/14 11:31:23;;;;;;;129.13;118.78;;;17.10;87.30;;;;;;5003580;28;20136;-78
2022/04/14 11:33:55;;;;;;;123.85;113.85;;;17.20;87.20;;;;;;5029994;28;20053;-80
2022/04/14 11:36:25;;;;;;;125.03;115.03;;;17.30;86.30;;;;;;5014719;28;20053;-83
2022/04/14 11:38:53;;;;;;;124.30;114.20;;;17.30;85.80;;;;;;4998155;28;20049;-81
2022/04/14 11:41:41;;;;;;;119.07;109.25;;;17.40;86.90;;;;;;5015155;28;20053;-86
2022/04/14 11:44:11;;;;;;;122.40;112.30;;;17.40;87.00;;;;;;4998918;28;20073;-83
2022/04/14 11:46:39;;;;;;;119.78;109.78;;;17.50;86.20;;;;;;4999092;28;20516;-82
2022/04/14 11:49:09;;;;;;;122.53;112.22;;;17.50;86.70;;;;;;5015022;28;20065;-81
2022/04/14 11:51:44;;;;;;;124.68;114.72;;;17.60;84.20;;;;;;5015273;28;20050;-82
2022/04/14 11:54:11;;;;;;;123.70;113.30;;;17.60;84.50;;;;;;5015424;28;20054;-82
2022/04/14 11:56:39;;;;;;;125.00;114.80;;;17.60;84.10;;;;;;4998889;28;20049;-79
2022/04/14 11:59:08;;;;;;;122.90;112.85;;;17.70;84.60;;;;;;5015123;28;20064;-83
2022/04/14 12:01:49;;;;;;;120.43;110.43;;;17.80;84.40;;;;;;4998606;28;20173;-82
2022/04/14 12:04:18;;;;;;;120.45;110.53;;;17.80;80.90;;;;;;4998653;28;20061;-81
2022/04/14 12:06:53;;;;;;;122.57;112.40;;;17.80;81.60;;;;;;4998637;28;20141;-83
2022/04/14 12:09:20;;;;;;;125.95;115.82;;;17.90;79.00;;;;;;5015324;28;20349;-82
2022/04/14 12:11:47;;;;;;;122.32;112.45;;;17.90;81.00;;;;;;4998748;28;20423;-83
2022/04/14 12:14:16;;;;;;;121.43;111.43;;;17.90;81.20;;;;;;4998674;28;20052;-81